Las Vegas, Nevada (DRI) Weather observations

Data are for observation ending at time listed.
 Day   Time    Ave.   Ave.  Ave.  Vector   Max.   Stn.    Total    Solar   Ave.  
  of    of     Air    Rel.  Wind   Wind    Wind   Baro.  Precip.   Rad.    Soil  
Year   Day     Temp.  Hum.  Speed  Dir.    Gust   Pres.                    Temp. 
2026   (PST)    F      %     mph   deg.    mph     mb.     in.     W/m2     F   
------------------------------------------------------------------------------
 124    0:00   74.6    22    6.4   189     10.8   936.0    0.00       0    79.7
 124    0:10   74.2    22    6.7   192     10.9   936.1    0.00       0    79.5
 124    0:20   73.8    23    6.2   186     10.2   936.3    0.00       0    79.4
 124    0:30   73.4    24    7.0   200     13.8   936.1    0.00       0    79.3
 124    0:40   73.3    25    6.0   187     10.6   936.0    0.00       0    79.2
 124    0:50   73.1    25    5.9   188     11.4   936.2    0.00       0    79.0
 124    1:00   73.0    25    6.4   179     11.9   936.5    0.00       0    78.9
 124    1:10   72.6    26    5.9   177     11.5   936.5    0.00       0    78.8
 124    1:20   71.7    28    7.3   174     14.4   936.4    0.00       0    78.7
 124    1:30   70.5    31    7.4   176     13.1   936.5    0.00       0    78.5
 124    1:40   69.8    32    7.4   174     13.7   936.6    0.00       0    78.4
 124    1:50   69.4    33    5.3   172     11.5   936.7    0.00       0    78.3
 124    2:00   69.1    34    4.9   178      9.9   936.7    0.00       0    78.2
 124    2:10   68.5    36    6.3   176     11.5   936.7    0.00       0    78.1
 124    2:20   68.2    37    6.0   176     12.5   936.6    0.00       0    77.9
 124    2:30   68.0    37    5.6   181     10.7   936.6    0.00       0    77.8
 124    2:40   67.8    37    7.0   181     13.8   936.6    0.00       0    77.7
 124    2:50   67.6    37    6.5   177     12.2   936.6    0.00       0    77.6
 124    3:00   67.3    38    6.3   182     13.2   936.7    0.00       0    77.4
 124    3:10   67.1    37    8.1   187     13.9   936.8    0.00       0    77.2
 124    3:20   66.9    38    6.3   196     11.5   936.7    0.00       0    77.1
 124    3:30   66.8    38    5.7   181     12.2   936.7    0.00       0    77.0
 124    3:40   66.6    38    6.6   179     12.9   936.6    0.00       0    76.9
 124    3:50   66.2    38    7.3   182     13.2   936.4    0.00       0    76.7
 124    4:00   65.8    39    7.8   180     16.1   936.4    0.00       0    76.6
 124    4:10   65.4    39    8.2   177     14.8   936.3    0.00       0    76.4
 124    4:20   65.3    39    6.9   183     14.9   936.6    0.00       0    76.2
 124    4:30   65.2    40    5.9   181     10.7   936.6    0.00       0    76.1
 124    4:40   64.6    41    5.4   176     13.4   936.8    0.00       1    76.0
 124    4:50   64.3    41    6.3   175     12.3   936.7    0.00       2    75.9
 124    5:00   64.2    42    6.1   175     13.0   936.8    0.00       5    75.8
 124    5:10   64.0    42    3.5   171      8.1   936.9    0.00      14    75.7
 124    5:20   64.0    43    1.4   148      3.6   937.1    0.00      23    75.6
 124    5:30   63.9    43    1.0   195      4.0   937.2    0.00      34    75.6
 124    5:40   63.9    43    2.5   172      7.5   937.3    0.00      48    75.5
 124    5:50   63.8    43    3.8   174      9.9   937.4    0.00      59    75.4
 124    6:00   63.7    44    4.2   174     10.2   937.6    0.00      76    75.3
 124    6:10   63.8    44    5.5   182     14.8   937.6    0.00      90    75.2
 124    6:20   63.7    44    6.6   173     17.6   937.6    0.00     102    75.1
 124    6:30   63.5    45    7.3   170     14.5   937.8    0.00     117    75.0
 124    6:40   63.6    45    6.6   173     12.2   937.9    0.00     129    74.9
 124    6:50   64.0    44    6.2   174     14.7   938.0    0.00     145    74.8
 124    7:00   64.0    44    6.8   174     13.5   938.0    0.00     158    74.7
 124    7:10   64.2    44    5.2   174     10.9   938.1    0.00     173    74.7
 124    7:20   64.7    44    3.4   172      9.1   938.1    0.00     190    74.7
 124    7:30   65.1    43    3.1   174     12.6   938.2    0.00     199    74.7
 124    7:40   65.2    43    4.2   175     10.9   938.3    0.00     211    74.7
 124    7:50   65.4    42    5.9   172     15.2   938.4    0.00     228    74.7
 124    8:00   65.6    41    6.5   168     12.8   938.4    0.00     253    74.8
 124    8:10   66.6    39    5.6   180     11.5   938.4    0.00     268    74.8
 124    8:20   67.4    38    3.9   166      8.0   938.4    0.00     260    74.8
 124    8:30   67.6    37    6.7   172     14.5   938.4    0.00     285    74.9
 124    8:40   67.3    37    7.9   173     17.1   938.3    0.00     303    74.9
 124    8:50   67.6    36    9.2   175     20.3   938.4    0.00     335    74.8
 124    9:00   67.9    36    7.7   173     14.2   938.6    0.00     378    74.9
 124    9:10   68.4    34    7.2   169     12.6   938.5    0.00     496    75.0
 124    9:20   68.8    34    7.5   174     15.9   938.5    0.00     526    75.1
 124    9:30   69.0    33    8.0   172     19.1   938.4    0.00     577    75.2
 124    9:40   69.3    33    8.3   174     19.4   938.7    0.00     627    75.3
 124    9:50   69.8    33    6.6   173     15.3   938.9    0.00     749    75.5
 124   10:00   70.4    31    7.1   171     15.0   938.8    0.00     726    75.7
 124   10:10   70.6    31    6.8   174     13.8   938.9    0.00     665    76.1
 124   10:20   71.2    31    6.9   178     12.1   938.8    0.00     793    76.5
 124   10:30   72.2    29    6.0   182     13.9   938.8    0.00     882    76.8
 124   10:40   72.9    28    6.8   180     16.2   938.5    0.00     753    77.3
 124   10:50   73.3    25    7.1   176     13.4   938.3    0.00     883    77.8
 124   11:00   73.7    22    8.3   199     16.3   938.2    0.00     945    78.2
 124   11:10   74.2    21    8.3   195     16.8   938.1    0.00     958    78.7
 124   11:20   74.7    21    8.9   181     15.3   938.0    0.00     914    79.2
 124   11:30   74.8    23    6.5   177     14.8   937.9    0.00     835    79.8
 124   11:40   75.5    20    8.6   172     15.0   937.7    0.00     907    80.4
 124   11:50   75.3    19    9.8   180     17.9   937.7    0.00     934    80.9
 124   12:00   75.1    19   10.3   170     19.2   937.5    0.00     956    81.3
 124   12:10   76.2    18    8.8   177     19.3   937.4    0.00     868    81.6
 124   12:20   76.4    17    9.6   178     18.9   937.3    0.00     900    82.0
 124   12:30   76.2    16    9.3   172     16.7   937.3    0.00     789    82.4
 124   12:40   76.8    15    8.6   172     20.0   937.2    0.00     979    82.7
 124   12:50   77.3    14    9.2   186     19.4   937.3    0.00     874    83.0
 124   13:00   77.5    14    8.8   173     16.6   937.2    0.00     929    83.4
 124   13:10   77.6    14    7.9   172     16.4   937.2    0.00     915    83.7
 124   13:20   78.1    14    8.5   185     20.8   937.2    0.00     918    84.0
 124   13:30   77.5    14    9.7   190     17.4   937.1    0.00     845    84.4
 124   13:40   77.9    14    7.0   197     15.8   937.0    0.00     833    84.7
 124   13:50   78.2    14    7.5   186     15.2   936.9    0.00     670    85.1
 124   14:00   77.3    13    7.2   178     15.9   936.8    0.00     686    85.4
 124   14:10   78.3    13    7.1   185     13.6   936.6    0.00     788    85.6
 124   14:20   78.6    13    8.0   184     16.1   936.4    0.00     681    85.7
 124   14:30   78.0    13    9.5   179     20.0   936.4    0.00     666    85.8
 124   14:40   78.1    13    7.3   178     20.2   936.3    0.00     689    85.9
 124   14:50   78.6    14    7.7   176     15.6   936.3    0.00     641    86.0
 124   15:00   78.1    14    9.0   179     19.1   936.2    0.00     543    86.0
 124   15:10   77.8    14    7.0   183     17.1   936.1    0.00     509    85.9
 124   15:20   76.4    14    9.8   180     18.2   936.0    0.00     289    85.8
 124   15:30   75.9    15    9.5   181     19.7   936.0    0.00     336    85.7
 124   15:40   75.5    15    9.4   193     18.1   936.0    0.00     324    85.4
 124   15:50   75.5    16    7.9   198     16.4   935.9    0.00     294    85.1
 124   16:00   75.7    17    9.8   188     19.3   936.0    0.00     548    84.8
 124   16:10   76.3    17    9.1   194     21.0   936.2    0.00     516    84.5
 124   16:20   76.0    18    8.6   180     16.2   936.1    0.00     396    84.3
 124   16:30   76.0    19    7.2   188     15.4   936.0    0.00     389    84.2
 124   16:40   76.0    19    8.3   182     15.5   936.0    0.00     368    84.1
 124   16:50   75.8    19    7.2   188     15.2   936.0    0.00     315    83.9
 124   17:00   75.8    17    7.5   186     13.4   935.9    0.00     278    83.9
 124   17:10   75.7    17    7.1   187     14.5   935.9    0.00     238    83.7
 124   17:20   75.5    16    8.6   188     15.8   935.9    0.00     205    83.5
 124   17:30   75.0    17    8.7   184     18.0   935.9    0.00     171    83.3
 124   17:40   74.4    17    9.3   190     18.3   935.9    0.00     140    83.0
 124   17:50   73.8    18    8.9   189     19.5   935.9    0.00     106    82.8
 124   18:00   73.4    18    9.4   192     18.9   935.9    0.00      32    82.5
 124   18:10   73.0    20    8.3   184     15.4   935.9    0.00      23    82.2
 124   18:20   72.6    20    8.2   189     15.8   936.0    0.00      13    82.0
 124   18:30   72.3    21    7.9   185     14.4   936.0    0.00       6    81.7
 124   18:40   71.9    22    8.4   186     15.9   935.9    0.00       2    81.4
 124   18:50   71.7    23    7.2   191     15.6   936.1    0.00       1    81.2
 124   19:00   71.5    23    6.2   190     12.9   936.3    0.00       0    81.0
 124   19:10   71.3    24    6.5   190     15.3   936.5    0.00       0    80.7
 124   19:20   71.0    25    6.6   199     13.6   936.6    0.00       0    80.5
 124   19:30   70.8    26    6.5   203     13.8   936.8    0.00       0    80.3
 124   19:40   70.7    26    5.5   202     12.2   936.8    0.00       0    80.1
 124   19:50   70.4    26    5.4   193     10.7   937.0    0.00       0    79.9
 124   20:00   70.2    26    4.1   199      9.8   937.3    0.00       0    79.8
 124   20:10   69.9    27    2.9   199      6.9   937.5    0.00       0    79.6
 124   20:20   69.4    28    3.7   186      8.0   937.6    0.00       0    79.5
 124   20:30   69.1    28    4.3   213      9.2   937.7    0.00       0    79.3
 124   20:40   68.8    28    4.0   194     10.1   937.9    0.00       0    79.1
 124   20:50   68.6    29    4.8   208     12.1   937.9    0.00       0    79.0
 124   21:00   68.3    30    4.5   190     11.3   937.9    0.00       0    78.8
 124   21:10   67.9    30    5.5   194     11.5   938.0    0.00       0    78.6
 124   21:20   67.6    30    5.8   195     12.1   938.1    0.00       0    78.4
 124   21:30   67.3    31    5.7   186     12.9   938.3    0.00       0    78.2
 124   21:40   66.9    31    5.4   188     11.9   938.3    0.00       0    78.0
 124   21:50   66.7    32    5.8   192     13.2   938.3    0.00       0    77.8
 124   22:00   66.4    32    5.3   186     13.0   938.4    0.00       0    77.7
 124   22:10   66.1    32    5.0   192      8.7   938.4    0.00       0    77.5
 124   22:20   65.8    33    5.3   187     10.4   938.3    0.00       0    77.3
 124   22:30   65.5    34    5.5   192     12.7   938.3    0.00       0    77.2
 124   22:40   65.3    34    5.6   196     12.6   938.2    0.00       0    77.0
 124   22:50   65.1    35    5.8   180     11.8   938.3    0.00       0    76.8
 124   23:00   64.8    35    5.2   184      8.8   938.3    0.00       0    76.7
 124   23:10   64.5    36    5.4   178     10.2   938.4    0.00       0    76.5
 124   23:20   64.3    37    5.9   173     11.9   938.4    0.00       0    76.4
 124   23:30   64.1    37    4.8   181     11.4   938.4    0.00       0    76.2

Return to Las Vegas, Nevada graphs page.


Western Regional Climate Center,wrcc@dri.edu